createdAt,value
2023-04-11T00:00:24.337Z,48.5331
2023-04-11T00:01:26.039Z,48.7048
2023-04-11T00:02:27.830Z,48.8003
2023-04-11T00:03:29.426Z,48.8069
2023-04-11T00:04:30.981Z,48.7899
2023-04-11T00:05:32.614Z,48.8424
2023-04-11T00:06:34.282Z,48.7426
2023-04-11T00:07:35.916Z,48.5185
2023-04-11T00:08:37.506Z,48.6155
2023-04-11T00:09:39.170Z,48.4684
2023-04-11T00:10:40.655Z,48.4681
2023-04-11T00:11:42.350Z,48.5162
2023-04-11T00:12:43.933Z,48.5600
2023-04-11T00:13:45.638Z,48.2820
2023-04-11T00:14:47.261Z,48.3094
2023-04-11T00:15:48.872Z,48.3461
2023-04-11T00:16:50.622Z,48.4252
2023-04-11T00:17:52.183Z,48.4037
2023-04-11T00:18:54.053Z,48.4043
2023-04-11T00:19:55.448Z,48.4659
2023-04-11T00:20:57.134Z,48.5128
2023-04-11T00:21:58.780Z,48.4941
2023-04-11T00:23:00.441Z,48.6339
2023-04-11T00:24:02.048Z,48.6998
2023-04-11T00:25:03.701Z,48.7042
2023-04-11T00:26:05.335Z,48.6527
2023-04-11T00:27:07.001Z,48.6501
2023-04-11T00:28:08.696Z,48.6603
2023-04-11T00:29:10.254Z,48.6729
2023-04-11T00:30:11.892Z,48.6652
2023-04-11T00:31:13.551Z,48.6260
2023-04-11T00:32:15.228Z,48.5969
2023-04-11T00:33:16.835Z,48.6070
2023-04-11T00:34:18.507Z,48.5974
2023-04-11T00:35:20.134Z,48.5623
2023-04-11T00:36:21.871Z,48.5197
2023-04-11T00:37:23.452Z,48.4841
2023-04-11T00:38:25.057Z,48.5067
2023-04-11T00:39:26.733Z,48.5577
2023-04-11T00:40:28.331Z,48.5594
2023-04-11T00:41:29.989Z,48.5586
2023-04-11T00:42:31.651Z,48.5938
2023-04-11T00:43:33.254Z,48.6629
2023-04-11T00:44:34.881Z,48.7304
2023-04-11T00:45:36.553Z,48.7957
2023-04-11T00:46:38.188Z,48.6472
2023-04-11T00:47:39.904Z,48.2441
2023-04-11T00:48:41.450Z,48.3466
2023-04-11T00:49:43.131Z,48.4519
2023-04-11T00:50:44.749Z,48.4422
2023-04-11T00:51:46.390Z,48.3737
2023-04-11T00:52:48.093Z,48.2698
2023-04-11T00:53:49.674Z,48.2939
2023-04-11T00:54:51.352Z,48.5035
2023-04-11T00:55:52.976Z,48.4729
2023-04-11T00:56:54.628Z,48.5374
2023-04-11T00:57:56.293Z,48.6198
2023-04-11T00:58:57.948Z,48.6843
2023-04-11T00:59:59.562Z,48.5679
2023-04-11T01:01:01.253Z,48.7664
2023-04-11T01:02:03.039Z,48.9743
2023-04-11T01:03:04.840Z,49.4115
2023-04-11T01:04:06.342Z,49.8975
2023-04-11T01:05:07.999Z,50.2809
2023-04-11T01:06:09.633Z,50.4401
2023-04-11T01:07:11.198Z,50.5672
2023-04-11T01:08:12.896Z,51.0009
2023-04-11T01:09:14.549Z,51.2066
2023-04-11T01:10:16.139Z,51.9449
2023-04-11T01:11:17.798Z,52.3658
2023-04-11T01:12:19.413Z,51.9125
2023-04-11T01:13:21.136Z,51.9043
2023-04-11T01:14:22.735Z,51.9552
2023-04-11T01:15:24.373Z,51.8380
2023-04-11T01:16:26.032Z,51.7653
2023-04-11T01:17:27.707Z,51.6831
2023-04-11T01:18:29.338Z,51.6922
2023-04-11T01:19:31.004Z,52.0910
2023-04-11T01:20:32.613Z,52.2197
2023-04-11T01:21:34.255Z,51.8086
2023-04-11T01:22:35.897Z,52.0670
2023-04-11T01:23:37.617Z,51.6504
2023-04-11T01:24:39.216Z,51.5659
2023-04-11T01:25:40.862Z,51.4783
2023-04-11T01:26:42.494Z,51.3142
2023-04-11T01:27:44.135Z,51.3878
2023-04-11T01:28:45.832Z,51.3765
2023-04-11T01:29:47.430Z,51.1216
2023-04-11T01:30:49.081Z,51.0727
2023-04-11T01:31:50.767Z,50.9800
2023-04-11T01:32:52.401Z,50.8969
2023-04-11T01:33:54.057Z,50.9679
2023-04-11T01:34:55.664Z,50.8987
2023-04-11T01:35:57.323Z,50.9136
2023-04-11T01:36:58.994Z,50.8371
2023-04-11T01:38:00.658Z,50.6661
2023-04-11T01:39:02.295Z,50.6496
2023-04-11T01:40:03.895Z,50.6995
2023-04-11T01:41:05.593Z,50.7182
2023-04-11T01:42:07.194Z,50.7447
2023-04-11T01:43:08.814Z,50.7867
2023-04-11T01:44:10.493Z,50.7530
2023-04-11T01:45:12.096Z,50.7264
2023-04-11T01:46:13.732Z,50.6892
2023-04-11T01:47:15.372Z,50.7152
2023-04-11T01:48:17.103Z,50.6834
2023-04-11T01:49:18.750Z,50.6816
2023-04-11T01:50:20.333Z,50.6111
2023-04-11T01:51:21.970Z,50.6049
2023-04-11T01:52:23.630Z,50.5725
2023-04-11T01:53:25.252Z,50.6020
2023-04-11T01:54:26.823Z,50.6327
2023-04-11T01:55:28.492Z,50.7257
2023-04-11T01:56:30.138Z,50.8190
2023-04-11T01:57:31.773Z,50.7479
2023-04-11T01:58:33.412Z,50.7318
2023-04-11T01:59:35.071Z,50.7013
2023-04-11T02:00:36.738Z,50.9030
2023-04-11T02:01:38.425Z,50.9900
2023-04-11T02:02:40.094Z,50.8905
2023-04-11T02:03:41.738Z,50.7839
2023-04-11T02:04:43.310Z,50.8141
2023-04-11T02:05:44.969Z,50.8032
2023-04-11T02:06:46.586Z,50.8282
2023-04-11T02:07:48.265Z,50.7724
2023-04-11T02:08:49.895Z,50.6972
2023-04-11T02:09:51.553Z,50.7534
2023-04-11T02:10:53.212Z,50.7328
2023-04-11T02:11:54.837Z,50.8752
2023-04-11T02:12:56.502Z,50.8165
2023-04-11T02:13:58.096Z,50.7371
2023-04-11T02:14:59.815Z,50.8074
2023-04-11T02:16:01.454Z,50.7718
2023-04-11T02:17:03.031Z,50.8253
2023-04-11T02:18:04.734Z,50.7683
2023-04-11T02:19:06.343Z,50.7424
2023-04-11T02:20:08.006Z,50.7081
2023-04-11T02:21:09.632Z,50.7205
2023-04-11T02:22:11.296Z,50.8177
2023-04-11T02:23:12.960Z,50.8086
2023-04-11T02:24:14.587Z,50.8066
2023-04-11T02:25:16.294Z,50.7818
2023-04-11T02:26:17.874Z,50.7652
2023-04-11T02:27:19.531Z,50.7425
2023-04-11T02:28:21.174Z,50.8196
2023-04-11T02:29:22.812Z,50.8409
2023-04-11T02:30:24.512Z,50.9251
2023-04-11T02:31:26.167Z,51.0343
2023-04-11T02:32:27.861Z,51.0746
2023-04-11T02:33:29.421Z,50.9528
2023-04-11T02:34:31.069Z,50.9114
2023-04-11T02:35:32.778Z,50.8598
2023-04-11T02:36:34.413Z,51.1035
2023-04-11T02:37:36.072Z,51.1123
2023-04-11T02:38:37.706Z,51.2128
2023-04-11T02:39:39.463Z,51.2592
2023-04-11T02:40:41.043Z,51.4879
2023-04-11T02:41:42.650Z,51.9810
2023-04-11T02:42:44.313Z,53.0890
2023-04-11T02:43:45.933Z,53.6899
2023-04-11T02:44:47.594Z,53.6666
2023-04-11T02:45:50.880Z,54.1801
2023-04-11T02:46:50.923Z,53.8636
2023-04-11T02:47:52.592Z,54.0118
2023-04-11T02:48:54.394Z,54.7855
2023-04-11T02:49:55.853Z,56.3686
2023-04-11T02:50:57.469Z,56.4295
2023-04-11T02:51:59.118Z,58.0896
2023-04-11T02:53:01.413Z,57.9166
2023-04-11T02:54:02.590Z,58.2820
2023-04-11T02:55:04.145Z,58.8506
2023-04-11T02:56:05.812Z,57.8357
2023-04-11T02:57:07.452Z,58.2464
2023-04-11T02:58:09.089Z,58.9174
2023-04-11T02:59:10.730Z,59.5742
2023-04-11T03:00:12.395Z,58.8082
2023-04-11T03:01:14.192Z,58.9178
2023-04-11T03:02:15.730Z,58.6996
2023-04-11T03:03:17.470Z,58.3842
2023-04-11T03:04:19.105Z,58.9953
2023-04-11T03:05:20.613Z,59.0605
2023-04-11T03:06:22.291Z,59.1572
2023-04-11T03:07:23.892Z,58.4139
2023-04-11T03:08:25.532Z,59.0492
2023-04-11T03:09:27.236Z,59.0361
2023-04-11T03:10:28.871Z,59.5427
2023-04-11T03:11:30.540Z,59.8525
2023-04-11T03:12:32.143Z,60.1427
2023-04-11T03:13:33.799Z,60.8770
2023-04-11T03:14:35.440Z,61.2137
2023-04-11T03:15:37.100Z,61.1320
2023-04-11T03:16:38.775Z,62.7893
2023-04-11T03:17:40.422Z,61.8101
2023-04-11T03:18:42.018Z,61.8171
2023-04-11T03:19:43.673Z,62.1528
2023-04-11T03:20:45.311Z,63.2921
2023-04-11T03:21:47.019Z,63.3990
2023-04-11T03:22:48.675Z,64.6288
2023-04-11T03:23:50.277Z,64.9705
2023-04-11T03:24:51.916Z,65.7771
2023-04-11T03:25:53.610Z,67.0213
2023-04-11T03:26:55.254Z,65.4808
2023-04-11T03:27:56.832Z,64.4265
2023-04-11T03:28:58.475Z,65.6100
2023-04-11T03:30:00.223Z,66.6039
2023-04-11T03:31:01.912Z,64.7013
2023-04-11T03:32:03.501Z,66.2503
2023-04-11T03:33:05.085Z,66.2475
2023-04-11T03:34:06.714Z,67.3466
2023-04-11T03:35:08.356Z,66.8649
2023-04-11T03:36:10.187Z,67.3310
2023-04-11T03:37:11.677Z,67.6290
2023-04-11T03:38:13.216Z,67.8384
2023-04-11T03:39:14.835Z,68.5422
2023-04-11T03:40:16.494Z,69.8638
2023-04-11T03:41:18.160Z,69.3677
2023-04-11T03:42:19.756Z,70.4217
2023-04-11T03:43:21.438Z,69.8347
2023-04-11T03:44:23.057Z,72.7692
2023-04-11T03:45:24.700Z,72.7711
2023-04-11T03:46:26.438Z,70.1342
2023-04-11T03:47:28.013Z,72.2159
2023-04-11T03:48:29.612Z,72.3972
2023-04-11T03:49:31.245Z,70.9665
2023-04-11T03:50:32.914Z,71.0992
2023-04-11T03:51:34.598Z,70.8439
2023-04-11T03:52:36.203Z,70.4849
2023-04-11T03:53:37.852Z,72.0200
2023-04-11T03:54:39.472Z,73.5277
2023-04-11T03:55:41.129Z,72.8011
2023-04-11T03:56:42.835Z,72.9756
2023-04-11T03:57:44.463Z,73.2232
2023-04-11T03:58:46.088Z,72.3134
2023-04-11T03:59:47.722Z,73.2325
2023-04-11T04:00:49.346Z,74.1391
2023-04-11T04:01:51.064Z,73.1998
2023-04-11T04:02:52.955Z,74.1372
2023-04-11T04:03:54.635Z,73.4169
2023-04-11T04:04:55.995Z,73.4724
2023-04-11T04:05:57.560Z,72.3151
2023-04-11T04:06:59.244Z,73.1263
2023-04-11T04:08:00.833Z,73.2617
2023-04-11T04:09:02.509Z,73.8457
2023-04-11T04:10:04.155Z,73.9001
2023-04-11T04:11:05.764Z,73.6276
2023-04-11T04:12:07.421Z,74.1815
2023-04-11T04:13:09.050Z,77.7005
2023-04-11T04:14:10.675Z,76.5266
2023-04-11T04:15:12.351Z,75.6948
2023-04-11T04:16:13.983Z,74.5819
2023-04-11T04:17:15.653Z,74.7090
2023-04-11T04:18:17.449Z,76.4716
2023-04-11T04:19:18.933Z,75.1378
2023-04-11T04:20:20.516Z,75.0693
2023-04-11T04:21:22.195Z,78.8648
2023-04-11T04:22:23.882Z,78.6405
2023-04-11T04:23:25.451Z,76.9673
2023-04-11T04:24:27.180Z,78.1853
2023-04-11T04:25:28.736Z,76.4518
2023-04-11T04:26:30.378Z,75.5575
2023-04-11T04:27:32.084Z,75.6298
2023-04-11T04:28:33.673Z,75.2797
2023-04-11T04:29:35.286Z,76.6477
2023-04-11T04:30:36.938Z,77.3064
2023-04-11T04:31:38.613Z,75.2671
2023-04-11T04:32:40.559Z,77.1680
2023-04-11T04:33:41.846Z,77.6624
2023-04-11T04:34:43.518Z,76.3013
2023-04-11T04:35:45.257Z,76.4120
2023-04-11T04:36:47.122Z,77.1864
2023-04-11T04:37:48.422Z,78.6168
2023-04-11T04:38:50.080Z,78.2086
2023-04-11T04:39:51.716Z,77.8660
2023-04-11T04:40:53.360Z,77.3300
2023-04-11T04:41:55.000Z,78.4028
2023-04-11T04:42:56.676Z,75.7569
2023-04-11T04:43:58.500Z,76.5949
2023-04-11T04:45:00.005Z,76.3571
2023-04-11T04:46:01.744Z,77.1145
2023-04-11T04:47:03.288Z,77.9061
2023-04-11T04:48:05.084Z,79.6339
2023-04-11T04:49:06.629Z,78.1120
2023-04-11T04:50:08.237Z,78.6166
2023-04-11T04:51:09.859Z,79.2760
2023-04-11T04:52:11.520Z,79.4852
2023-04-11T04:53:13.221Z,76.9809
2023-04-11T04:54:14.780Z,76.4625
2023-04-11T04:55:16.427Z,81.1695
2023-04-11T04:56:18.074Z,82.7937
2023-04-11T04:57:19.736Z,78.7719
2023-04-11T04:58:21.415Z,79.0883
2023-04-11T04:59:23.063Z,81.0673
2023-04-11T05:00:24.639Z,80.5552
2023-04-11T05:01:26.368Z,77.8018
2023-04-11T05:02:28.146Z,78.2263
2023-04-11T05:03:29.789Z,77.8305
2023-04-11T05:04:31.236Z,78.6061
2023-04-11T05:05:32.839Z,81.6111
2023-04-11T05:06:34.550Z,79.6409
2023-04-11T05:07:36.150Z,77.8943
2023-04-11T05:08:37.814Z,79.7067
2023-04-11T05:09:39.415Z,78.3058
2023-04-11T05:10:41.135Z,76.9097
2023-04-11T05:11:42.768Z,76.4154
2023-04-11T05:12:44.380Z,77.7964
2023-04-11T05:13:46.059Z,77.2995
2023-04-11T05:14:47.717Z,77.6615
2023-04-11T05:15:49.298Z,77.3893
2023-04-11T05:16:51.039Z,78.1088
2023-04-11T05:17:52.722Z,78.5480
2023-04-11T05:18:54.331Z,77.9254
2023-04-11T05:19:55.886Z,77.9329
2023-04-11T05:20:57.483Z,76.9122
2023-04-11T05:21:59.117Z,76.8457
2023-04-11T05:23:00.770Z,76.8617
2023-04-11T05:24:02.470Z,76.7369
2023-04-11T05:25:04.080Z,77.9724
2023-04-11T05:26:05.718Z,78.2624
2023-04-11T05:27:07.352Z,77.3513
2023-04-11T05:28:09.038Z,77.6230
2023-04-11T05:29:10.675Z,77.2746
2023-04-11T05:30:12.291Z,77.0220
2023-04-11T05:31:13.925Z,76.3973
2023-04-11T05:32:15.566Z,76.3706
2023-04-11T05:33:17.215Z,77.4757
2023-04-11T05:34:18.854Z,77.3636
2023-04-11T05:35:20.914Z,78.6317
2023-04-11T05:36:22.142Z,80.2234
2023-04-11T05:37:23.800Z,79.0205
2023-04-11T05:38:25.398Z,79.5969
2023-04-11T05:39:27.115Z,79.0225
2023-04-11T05:40:28.683Z,78.4289
2023-04-11T05:41:30.357Z,78.0166
2023-04-11T05:42:32.001Z,78.2649
2023-04-11T05:43:33.621Z,79.8998
2023-04-11T05:44:35.333Z,78.6270
2023-04-11T05:45:36.922Z,77.6608
2023-04-11T05:46:38.615Z,77.2611
2023-04-11T05:47:40.201Z,77.2763
2023-04-11T05:48:41.854Z,77.3889
2023-04-11T05:49:43.499Z,77.3433
2023-04-11T05:50:45.110Z,76.9570
2023-04-11T05:51:46.758Z,76.8926
2023-04-11T05:52:48.388Z,77.1772
2023-04-11T05:53:50.031Z,76.7760
2023-04-11T05:54:51.702Z,77.0176
2023-04-11T05:55:53.280Z,76.6800
2023-04-11T05:56:54.896Z,77.6373
2023-04-11T05:57:56.607Z,76.9097
2023-04-11T05:58:58.203Z,77.7400
2023-04-11T05:59:59.888Z,78.6034
2023-04-11T06:01:01.508Z,78.3193
2023-04-11T06:02:03.200Z,77.4585
2023-04-11T06:03:04.825Z,78.1346
2023-04-11T06:04:06.566Z,78.4406
2023-04-11T06:05:08.132Z,77.8723
2023-04-11T06:06:09.687Z,78.8941
2023-04-11T06:07:11.706Z,77.7928
2023-04-11T06:08:13.001Z,79.2403
2023-04-11T06:09:14.900Z,78.8566
2023-04-11T06:10:16.319Z,78.7524
2023-04-11T06:11:17.939Z,78.5820
2023-04-11T06:12:19.567Z,78.3129
2023-04-11T06:13:21.200Z,77.7692
2023-04-11T06:14:22.846Z,77.5647
2023-04-11T06:15:24.527Z,78.3696
2023-04-11T06:16:26.290Z,78.7154
2023-04-11T06:17:27.796Z,78.3875
2023-04-11T06:18:29.397Z,77.4289
2023-04-11T06:19:31.032Z,79.4678
2023-04-11T06:20:32.719Z,80.1931
2023-04-11T06:21:34.321Z,79.6663
2023-04-11T06:22:35.941Z,78.4489
2023-04-11T06:23:37.624Z,78.0089
2023-04-11T06:24:39.224Z,78.4789
2023-04-11T06:25:40.959Z,79.1917
2023-04-11T06:26:42.671Z,78.5113
2023-04-11T06:27:44.315Z,78.9207
2023-04-11T06:28:45.885Z,78.4317
2023-04-11T06:29:47.541Z,77.8486
2023-04-11T06:30:49.333Z,77.4604
2023-04-11T06:31:50.858Z,77.9344
2023-04-11T06:32:52.580Z,78.0777
2023-04-11T06:33:54.267Z,78.5506
2023-04-11T06:34:55.768Z,78.3357
2023-04-11T06:35:57.475Z,77.4103
2023-04-11T06:36:59.085Z,78.0838
2023-04-11T06:38:00.674Z,79.7100
2023-04-11T06:39:02.365Z,77.6172
2023-04-11T06:40:04.040Z,77.6347
2023-04-11T06:41:05.746Z,77.6689
2023-04-11T06:42:07.312Z,77.4981
2023-04-11T06:43:08.952Z,77.5904
2023-04-11T06:44:10.535Z,77.6919
2023-04-11T06:45:12.181Z,77.5630
2023-04-11T06:46:13.862Z,78.2715
2023-04-11T06:47:15.453Z,77.4163
2023-04-11T06:48:17.132Z,78.1326
2023-04-11T06:49:18.737Z,78.0602
2023-04-11T06:50:20.422Z,77.4760
2023-04-11T06:51:22.093Z,77.6414
2023-04-11T06:52:24.930Z,77.8310
2023-04-11T06:53:25.335Z,78.4117
2023-04-11T06:54:26.971Z,78.3000
2023-04-11T06:55:28.617Z,78.1649
2023-04-11T06:56:30.316Z,78.0245
2023-04-11T06:57:31.895Z,77.7637
2023-04-11T06:58:33.539Z,78.4337
2023-04-11T06:59:35.205Z,78.5876
2023-04-11T07:00:36.883Z,78.0371
2023-04-11T07:01:38.565Z,79.1650
2023-04-11T07:02:40.306Z,78.0553
2023-04-11T07:03:41.933Z,78.2298
2023-04-11T07:04:43.440Z,78.7438
2023-04-11T07:05:45.089Z,79.1699
2023-04-11T07:06:46.688Z,78.5050
2023-04-11T07:07:48.349Z,78.7793
2023-04-11T07:08:49.985Z,79.5634
2023-04-11T07:09:51.620Z,79.1382
2023-04-11T07:10:53.298Z,79.5553
2023-04-11T07:11:54.899Z,79.3503
2023-04-11T07:12:56.522Z,80.0161
2023-04-11T07:13:58.386Z,80.4838
2023-04-11T07:14:59.847Z,79.2863
2023-04-11T07:16:01.579Z,79.9883
2023-04-11T07:17:03.133Z,79.6941
2023-04-11T07:18:04.816Z,80.0480
2023-04-11T07:19:06.410Z,79.2318
2023-04-11T07:20:08.049Z,79.6317
2023-04-11T07:21:09.758Z,80.0468
2023-04-11T07:22:11.338Z,79.1753
2023-04-11T07:23:13.008Z,79.4209
2023-04-11T07:24:14.631Z,79.2963
2023-04-11T07:25:16.301Z,79.9850
2023-04-11T07:26:17.980Z,79.7690
2023-04-11T07:27:19.557Z,79.9804
2023-04-11T07:28:21.211Z,80.5450
2023-04-11T07:29:22.840Z,79.8372
2023-04-11T07:30:24.531Z,79.5389
2023-04-11T07:31:26.260Z,79.9800
2023-04-11T07:32:27.794Z,80.1204
2023-04-11T07:33:29.397Z,80.6467
2023-04-11T07:34:31.046Z,81.3849
2023-04-11T07:35:32.744Z,81.2563
2023-04-11T07:36:34.395Z,81.4255
2023-04-11T07:37:35.982Z,80.1256
2023-04-11T07:38:37.717Z,79.8503
2023-04-11T07:39:39.280Z,80.5278
2023-04-11T07:40:40.907Z,80.0281
2023-04-11T07:41:42.568Z,80.3302
2023-04-11T07:42:44.177Z,80.2657
2023-04-11T07:43:45.817Z,80.9120
2023-04-11T07:44:47.448Z,82.1246
2023-04-11T07:45:49.102Z,80.4391
2023-04-11T07:46:50.741Z,80.1808
2023-04-11T07:47:52.400Z,79.7911
2023-04-11T07:48:54.013Z,80.1518
2023-04-11T07:49:55.636Z,80.6419
2023-04-11T07:50:57.312Z,79.9231
2023-04-11T07:51:58.934Z,80.2848
2023-04-11T07:53:00.540Z,80.6586
2023-04-11T07:54:02.285Z,81.1697
2023-04-11T07:55:03.835Z,81.3650
2023-04-11T07:56:05.494Z,80.3629
2023-04-11T07:57:07.184Z,80.5160
2023-04-11T07:58:08.753Z,81.2949
2023-04-11T07:59:10.687Z,80.3763
2023-04-11T08:00:12.162Z,80.0214
2023-04-11T08:01:13.679Z,79.8341
2023-04-11T08:02:15.401Z,79.4220
2023-04-11T08:03:17.308Z,79.5936
2023-04-11T08:04:18.734Z,79.5616
2023-04-11T08:05:20.319Z,79.8145
2023-04-11T08:06:21.856Z,79.9418
2023-04-11T08:07:23.559Z,80.4916
2023-04-11T08:08:25.140Z,81.5469
2023-04-11T08:09:26.810Z,80.7358
2023-04-11T08:10:28.440Z,80.5982
2023-04-11T08:11:30.063Z,81.0853
2023-04-11T08:12:32.093Z,80.5474
2023-04-11T08:13:33.334Z,79.7300
2023-04-11T08:14:34.978Z,79.9157
2023-04-11T08:15:36.612Z,80.3010
2023-04-11T08:16:38.385Z,80.6834
2023-04-11T08:17:39.995Z,79.6526
2023-04-11T08:18:41.533Z,79.5805
2023-04-11T08:19:43.153Z,80.8330
2023-04-11T08:20:44.834Z,79.6323
2023-04-11T08:21:46.453Z,80.2609
2023-04-11T08:22:48.180Z,80.2082
2023-04-11T08:23:50.414Z,80.6837
2023-04-11T08:24:51.333Z,80.6803
2023-04-11T08:25:53.021Z,80.0660
2023-04-11T08:26:54.617Z,79.8241
2023-04-11T08:27:56.337Z,80.6234
2023-04-11T08:28:57.937Z,80.5367
2023-04-11T08:29:59.675Z,79.9235
2023-04-11T08:31:01.235Z,79.7366
2023-04-11T08:32:02.835Z,80.1297
2023-04-11T08:33:04.508Z,80.2299
2023-04-11T08:34:07.221Z,79.9029
2023-04-11T08:35:07.750Z,79.7002
2023-04-11T08:36:09.447Z,80.0412
2023-04-11T08:37:11.022Z,80.1440
2023-04-11T08:38:12.703Z,80.2776
2023-04-11T08:39:14.301Z,80.1409
2023-04-11T08:40:15.983Z,79.6354
2023-04-11T08:41:17.586Z,79.5945
2023-04-11T08:42:19.270Z,79.6338
2023-04-11T08:43:20.915Z,79.7046
2023-04-11T08:44:22.510Z,79.6564
2023-04-11T08:45:24.161Z,79.6827
2023-04-11T08:46:25.807Z,79.6940
2023-04-11T08:47:27.457Z,79.8310
2023-04-11T08:48:29.082Z,79.6879
2023-04-11T08:49:30.696Z,79.5238
2023-04-11T08:50:32.360Z,79.5189
2023-04-11T08:51:33.965Z,79.3130
2023-04-11T08:52:36.154Z,79.1264
2023-04-11T08:53:37.261Z,79.2394
2023-04-11T08:54:38.907Z,78.9364
2023-04-11T08:55:40.512Z,78.9965
2023-04-11T08:56:42.212Z,78.8691
2023-04-11T08:57:43.879Z,79.4042
2023-04-11T08:58:45.496Z,78.2794
2023-04-11T08:59:47.094Z,78.2607
2023-04-11T09:00:48.715Z,78.1441
2023-04-11T09:01:50.421Z,77.9817
2023-04-11T09:02:52.110Z,78.2061
2023-04-11T09:03:53.652Z,78.1127
2023-04-11T09:04:55.334Z,78.6429
2023-04-11T09:05:56.893Z,78.1460
2023-04-11T09:07:00.726Z,77.9590
2023-04-11T09:08:00.220Z,77.9921
2023-04-11T09:09:01.881Z,77.5263
2023-04-11T09:10:03.435Z,77.2888
2023-04-11T09:11:05.111Z,77.6176
2023-04-11T09:12:06.789Z,77.8817
2023-04-11T09:13:08.419Z,77.9393
2023-04-11T09:14:10.033Z,77.3777
2023-04-11T09:15:11.675Z,76.7888
2023-04-11T09:16:13.331Z,74.7461
2023-04-11T09:17:14.914Z,75.9906
2023-04-11T09:18:16.596Z,76.4588
2023-04-11T09:19:18.176Z,76.5123
2023-04-11T09:20:20.293Z,75.6798
2023-04-11T09:21:21.444Z,76.0819
2023-04-11T09:22:23.143Z,75.5820
2023-04-11T09:23:27.115Z,74.9332
2023-04-11T09:24:26.380Z,75.3501
2023-04-11T09:25:27.996Z,75.8926
2023-04-11T09:26:29.646Z,75.6704
2023-04-11T09:27:31.248Z,75.3627
2023-04-11T09:28:32.904Z,75.5315
2023-04-11T09:29:34.545Z,75.4009
2023-04-11T09:30:36.165Z,75.4297
2023-04-11T09:31:37.839Z,75.4331
2023-04-11T09:32:39.439Z,75.6302
2023-04-11T09:33:41.125Z,75.5200
2023-04-11T09:34:42.786Z,74.9240
2023-04-11T09:35:44.422Z,74.9105
2023-04-11T09:36:45.972Z,74.2760
2023-04-11T09:37:47.637Z,73.6288
2023-04-11T09:38:49.268Z,71.9000
2023-04-11T09:39:50.904Z,72.4915
2023-04-11T09:40:52.546Z,72.7380
2023-04-11T09:41:54.165Z,73.6107
2023-04-11T09:42:55.803Z,73.8449
2023-04-11T09:43:57.543Z,73.7173
2023-04-11T09:44:59.086Z,73.5463
2023-04-11T09:46:00.665Z,73.4053
2023-04-11T09:47:02.327Z,73.4041
2023-04-11T09:48:04.029Z,72.9427
2023-04-11T09:49:05.758Z,73.0202
2023-04-11T09:50:07.272Z,73.1393
2023-04-11T09:51:08.863Z,72.1656
2023-04-11T09:52:10.542Z,72.8379
2023-04-11T09:53:12.142Z,72.7798
2023-04-11T09:54:13.845Z,71.5138
2023-04-11T09:55:16.050Z,71.4434
2023-04-11T09:56:17.137Z,72.3367
2023-04-11T09:57:18.784Z,72.0302
2023-04-11T09:58:20.418Z,71.5741
2023-04-11T09:59:22.193Z,72.4325
2023-04-11T10:00:23.763Z,72.4582
2023-04-11T10:01:25.451Z,72.1742
2023-04-11T10:02:27.091Z,72.0787
2023-04-11T10:03:28.789Z,71.8890
2023-04-11T10:04:30.345Z,70.7185
2023-04-11T10:05:31.953Z,70.9481
2023-04-11T10:06:33.581Z,71.5292
2023-04-11T10:07:35.162Z,72.0545
2023-04-11T10:08:36.819Z,71.4973
2023-04-11T10:09:38.494Z,71.4859
2023-04-11T10:10:40.103Z,71.0588
2023-04-11T10:11:41.798Z,71.0835
2023-04-11T10:12:43.358Z,71.0386
2023-04-11T10:13:45.066Z,69.4308
2023-04-11T10:14:46.686Z,68.8009
2023-04-11T10:15:48.362Z,68.0497
2023-04-11T10:16:49.945Z,68.3960
2023-04-11T10:17:51.604Z,70.0242
2023-04-11T10:18:53.243Z,69.9837
2023-04-11T10:19:54.901Z,69.4767
2023-04-11T10:20:56.470Z,70.4990
2023-04-11T10:21:58.110Z,70.6589
2023-04-11T10:22:59.747Z,70.7808
2023-04-11T10:24:01.408Z,70.5500
2023-04-11T10:25:03.069Z,66.4101
2023-04-11T10:26:04.701Z,66.9929
2023-04-11T10:27:06.359Z,68.6971
2023-04-11T10:28:08.016Z,69.4370
2023-04-11T10:29:09.590Z,69.6861
2023-04-11T10:30:11.329Z,65.2497
2023-04-11T10:31:12.998Z,65.0097
2023-04-11T10:32:14.441Z,67.9308
2023-04-11T10:33:16.101Z,67.7319
2023-04-11T10:34:17.720Z,68.4858
2023-04-11T10:35:19.433Z,67.2611
2023-04-11T10:36:22.813Z,65.9650
2023-04-11T10:37:22.640Z,66.4571
2023-04-11T10:38:24.282Z,67.0031
2023-04-11T10:39:25.948Z,67.4349
2023-04-11T10:40:27.636Z,66.8542
2023-04-11T10:41:29.233Z,67.3621
2023-04-11T10:42:30.905Z,66.3331
2023-04-11T10:43:32.578Z,66.1231
2023-04-11T10:44:34.196Z,64.9341
2023-04-11T10:45:35.908Z,62.7850
2023-04-11T10:46:37.540Z,63.3758
2023-04-11T10:47:39.197Z,64.6195
2023-04-11T10:48:40.773Z,64.8923
2023-04-11T10:49:42.455Z,65.1310
2023-04-11T10:50:44.062Z,64.0531
2023-04-11T10:51:45.710Z,63.9804
2023-04-11T10:52:47.340Z,64.5169
2023-04-11T10:53:49.242Z,64.7480
2023-04-11T10:54:50.657Z,65.2099
2023-04-11T10:55:52.320Z,62.2335
2023-04-11T10:56:53.957Z,61.8972
2023-04-11T10:57:55.581Z,63.1033
2023-04-11T10:58:57.210Z,64.0294
2023-04-11T10:59:58.856Z,64.7265
2023-04-11T11:01:00.607Z,64.0726
2023-04-11T11:02:02.395Z,65.0210
2023-04-11T11:03:03.920Z,65.4043
2023-04-11T11:04:06.026Z,65.7883
2023-04-11T11:05:07.137Z,65.5455
2023-04-11T11:06:08.797Z,65.4749
2023-04-11T11:07:10.396Z,65.5039
2023-04-11T11:08:12.020Z,65.8778
2023-04-11T11:09:13.671Z,65.4915
2023-04-11T11:10:15.355Z,65.4031
2023-04-11T11:11:17.035Z,66.1481
2023-04-11T11:12:18.636Z,66.4714
2023-04-11T11:13:20.253Z,66.7602
2023-04-11T11:14:21.915Z,66.6566
2023-04-11T11:15:23.559Z,66.5557
2023-04-11T11:16:25.300Z,66.7032
2023-04-11T11:17:26.892Z,66.6971
2023-04-11T11:18:28.495Z,66.8029
2023-04-11T11:19:30.128Z,66.1501
2023-04-11T11:20:31.769Z,64.9668
2023-04-11T11:21:33.454Z,65.0789
2023-04-11T11:22:35.071Z,65.8165
2023-04-11T11:23:36.707Z,66.1717
2023-04-11T11:24:38.351Z,66.0774
2023-04-11T11:25:40.026Z,66.3002
2023-04-11T11:26:41.655Z,66.5576
2023-04-11T11:27:43.308Z,66.7177
2023-04-11T11:28:44.970Z,66.9500
2023-04-11T11:29:46.600Z,66.3982
2023-04-11T11:30:48.190Z,64.5494
2023-04-11T11:31:49.933Z,65.6398
2023-04-11T11:32:51.484Z,66.3556
2023-04-11T11:33:55.679Z,66.7650
2023-04-11T11:34:54.791Z,66.8561
2023-04-11T11:35:56.430Z,66.6023
2023-04-11T11:36:58.165Z,66.9294
2023-04-11T11:37:59.710Z,67.1131
2023-04-11T11:39:01.428Z,66.9193
2023-04-11T11:40:03.068Z,66.8508
2023-04-11T11:41:04.744Z,64.6473
2023-04-11T11:42:06.459Z,63.5590
2023-04-11T11:43:08.103Z,64.1704
2023-04-11T11:44:09.649Z,64.9443
2023-04-11T11:45:11.333Z,65.6125
2023-04-11T11:46:12.916Z,65.9672
2023-04-11T11:47:14.665Z,65.4231
2023-04-11T11:48:16.224Z,65.1523
2023-04-11T11:49:17.891Z,65.4089
2023-04-11T11:50:19.548Z,65.5785
2023-04-11T11:51:21.151Z,65.3646
2023-04-11T11:52:22.925Z,65.5184
2023-04-11T11:53:24.464Z,65.6311
2023-04-11T11:54:26.091Z,65.6092
2023-04-11T11:55:27.764Z,65.9922
2023-04-11T11:56:29.385Z,66.0603
2023-04-11T11:57:31.097Z,66.1980
2023-04-11T11:58:32.705Z,66.2326
2023-04-11T11:59:34.302Z,66.0910
2023-04-11T12:00:36.022Z,65.9386
2023-04-11T12:01:37.649Z,65.8971
2023-04-11T12:02:39.812Z,66.2940
2023-04-11T12:03:41.085Z,66.4698
2023-04-11T12:04:42.832Z,66.5346
2023-04-11T12:05:44.215Z,66.4398
2023-04-11T12:06:45.964Z,66.2212
2023-04-11T12:07:47.521Z,65.8790
2023-04-11T12:08:49.129Z,65.8900
2023-04-11T12:09:50.753Z,65.4732
2023-04-11T12:10:52.394Z,65.7725
2023-04-11T12:11:54.143Z,65.8632
2023-04-11T12:12:55.791Z,65.9018
2023-04-11T12:13:57.525Z,65.8828
2023-04-11T12:14:58.965Z,65.4975
2023-04-11T12:16:00.622Z,65.4783
2023-04-11T12:17:02.256Z,65.1430
2023-04-11T12:18:03.900Z,64.1897
2023-04-11T12:19:05.490Z,64.6299
2023-04-11T12:20:07.173Z,64.9423
2023-04-11T12:21:08.749Z,64.3020
2023-04-11T12:22:10.453Z,64.4581
2023-04-11T12:23:12.035Z,64.6917
2023-04-11T12:24:13.709Z,64.5119
2023-04-11T12:25:15.349Z,64.6450